Time;durP1;ratioP1;P1;durP2;ratioP2;P2;SDS_P1;SDS_P2;PMS_P1;PMS_P2;Temp;Humidity;BMP_temperature;BMP_pressure;BME280_temperature;BME280_humidity;BME280_pressure;Samples;Min_cycle;Max_cycle;Signal;HPM_P1;HPM_P2
2024/02/23 00:00:37;;;;;;;13.90;7.00;;;;;;;9.00;100.00;97946.91;213520;1292;140208;-92
2024/02/23 00:05:37;;;;;;;13.80;7.50;;;;;;;9.02;100.00;97945.63;213901;1291;138714;-87
2024/02/23 00:10:38;;;;;;;12.50;7.60;;;;;;;9.03;100.00;97935.48;214301;1291;140668;-92
2024/02/23 00:15:38;;;;;;;13.90;6.70;;;;;;;9.06;100.00;97935.89;214991;1291;139444;-89
2024/02/23 00:20:39;;;;;;;10.90;6.30;;;;;;;9.11;100.00;97934.44;214438;1286;139957;-94
2024/02/23 00:25:39;;;;;;;13.50;7.00;;;;;;;9.15;100.00;97933.73;215235;1290;138951;-91
2024/02/23 00:30:39;;;;;;;12.90;6.10;;;;;;;9.19;100.00;97933.38;214874;1292;139817;-91
2024/02/23 00:35:40;;;;;;;10.10;5.70;;;;;;;9.22;100.00;97927.13;214484;1289;138521;-89
2024/02/23 00:40:40;;;;;;;13.40;6.20;;;;;;;9.25;100.00;97920.38;214133;1286;140208;-89
2024/02/23 00:45:41;;;;;;;13.10;6.80;;;;;;;9.28;100.00;97922.98;214361;1286;138708;-88
2024/02/23 00:50:41;;;;;;;12.10;5.80;;;;;;;9.30;100.00;97917.12;213721;1289;139827;-89
2024/02/23 00:55:42;;;;;;;10.70;5.60;;;;;;;9.33;100.00;97922.30;214219;1291;138745;-90
2024/02/23 01:00:42;;;;;;;11.40;4.90;;;;;;;9.37;100.00;97919.95;213993;1299;140092;-91
2024/02/23 01:05:42;;;;;;;12.30;5.30;;;;;;;9.41;100.00;97925.25;214257;1289;138773;-89
2024/02/23 01:10:43;;;;;;;10.00;5.30;;;;;;;9.45;100.00;97925.79;213643;1287;139087;-88
2024/02/23 01:15:43;;;;;;;11.40;4.80;;;;;;;9.49;100.00;97934.00;214107;1291;138706;-88
2024/02/23 01:20:43;;;;;;;9.00;4.40;;;;;;;9.52;100.00;97926.21;214012;1285;140033;-87
2024/02/23 01:25:44;;;;;;;8.10;4.50;;;;;;;9.55;100.00;97930.06;214179;1288;139502;-90
2024/02/23 01:30:45;;;;;;;8.60;4.80;;;;;;;9.58;100.00;97927.20;215028;1291;140024;-89
2024/02/23 01:35:45;;;;;;;9.30;3.90;;;;;;;9.61;100.00;97933.92;214367;1289;139182;-88
2024/02/23 01:40:45;;;;;;;9.30;4.10;;;;;;;9.64;100.00;97931.83;213740;1288;142044;-87
2024/02/23 01:45:46;;;;;;;9.90;4.20;;;;;;;9.66;100.00;97946.59;214132;1285;138674;-89
2024/02/23 01:50:47;;;;;;;10.00;4.50;;;;;;;9.67;100.00;97945.77;213597;1288;139740;-90
2024/02/23 01:55:48;;;;;;;7.20;3.50;;;;;;;9.69;100.00;97950.91;214192;1286;138878;-92
2024/02/23 02:00:49;;;;;;;8.40;3.60;;;;;;;9.71;100.00;97944.80;213784;1289;139747;-91
2024/02/23 02:05:50;;;;;;;7.10;3.20;;;;;;;9.75;100.00;97948.65;214203;1285;139191;-87
2024/02/23 02:10:51;;;;;;;7.80;3.40;;;;;;;9.76;100.00;97929.78;213801;1287;140057;-90
2024/02/23 02:15:51;;;;;;;7.70;3.20;;;;;;;9.78;100.00;97936.55;214275;1287;138863;-92
2024/02/23 02:20:55;;;;;;;7.00;3.20;;;;;;;9.80;100.00;97929.67;214164;1285;139487;-92
2024/02/23 02:25:56;;;;;;;6.90;3.00;;;;;;;9.81;100.00;97937.41;214636;1285;138731;-90
2024/02/23 02:30:57;;;;;;;8.30;3.20;;;;;;;9.83;100.00;97938.61;214802;1290;139980;-90
2024/02/23 02:35:57;;;;;;;6.20;2.90;;;;;;;9.84;100.00;97945.44;214073;1289;139213;-90
2024/02/23 02:41:00;;;;;;;6.10;2.60;;;;;;;9.84;100.00;97950.98;213959;1285;138737;-88
2024/02/23 02:46:00;;;;;;;7.90;2.80;;;;;;;9.85;100.00;97945.80;214148;1286;139027;-89
2024/02/23 02:51:01;;;;;;;6.00;2.50;;;;;;;9.83;100.00;97943.80;213496;1291;139782;-90
2024/02/23 02:56:05;;;;;;;6.70;3.10;;;;;;;9.80;100.00;97950.07;214158;1288;138685;-90
2024/02/23 03:01:05;;;;;;;6.90;2.90;;;;;;;9.78;100.00;97969.51;214399;1285;140779;-88
2024/02/23 03:06:06;;;;;;;7.00;3.00;;;;;;;9.75;100.00;97984.57;214510;1289;108015;-92
2024/02/23 03:11:07;;;;;;;5.50;2.70;;;;;;;9.73;100.00;97982.19;213630;1288;140006;-90
2024/02/23 03:16:15;;;;;;;7.90;3.10;;;;;;;9.71;100.00;97992.31;213961;1288;138976;-89
2024/02/23 03:21:16;;;;;;;5.90;2.70;;;;;;;9.69;100.00;97994.22;213610;1286;224489;-87
2024/02/23 03:26:17;;;;;;;6.60;2.70;;;;;;;9.69;100.00;98003.95;213298;1286;139739;-88
2024/02/23 03:31:17;;;;;;;5.00;2.10;;;;;;;9.68;100.00;98008.36;214639;1287;138971;-88
2024/02/23 03:36:17;;;;;;;7.60;2.70;;;;;;;9.69;100.00;98015.16;213113;1287;140517;-88
2024/02/23 03:41:18;;;;;;;5.60;2.40;;;;;;;9.72;100.00;98022.70;214083;1285;138707;-91
2024/02/23 03:46:19;;;;;;;6.00;2.50;;;;;;;9.76;100.00;98032.50;213523;1291;140146;-89
2024/02/23 03:51:20;;;;;;;5.50;2.30;;;;;;;9.81;100.00;98039.38;213642;1300;138661;-90
2024/02/23 03:56:20;;;;;;;4.30;2.30;;;;;;;9.87;100.00;98047.77;213306;1288;140693;-90
2024/02/23 04:01:20;;;;;;;5.60;2.70;;;;;;;9.93;100.00;98057.27;214019;1288;138667;-88
2024/02/23 04:06:21;;;;;;;4.50;2.10;;;;;;;10.00;100.00;98065.49;213645;1285;140603;-91
2024/02/23 04:11:22;;;;;;;5.20;2.10;;;;;;;10.07;100.00;98080.11;214706;1288;138690;-91
2024/02/23 04:16:24;;;;;;;4.60;2.10;;;;;;;10.12;100.00;98091.39;214380;1289;143421;-90
2024/02/23 04:21:25;;;;;;;4.40;2.00;;;;;;;10.15;100.00;98102.22;214744;1285;139609;-89
2024/02/23 04:26:25;;;;;;;5.90;1.70;;;;;;;10.18;100.00;98105.13;213842;1288;142098;-92
2024/02/23 04:31:26;;;;;;;3.30;1.50;;;;;;;10.21;100.00;98111.66;215206;1287;139579;-87
2024/02/23 04:36:26;;;;;;;5.10;1.80;;;;;;;10.22;100.00;98117.28;214367;1286;140347;-90
2024/02/23 04:41:27;;;;;;;6.40;1.80;;;;;;;10.25;100.00;98133.30;214208;1288;139393;-91
2024/02/23 04:46:28;;;;;;;4.90;1.60;;;;;;;10.27;100.00;98146.77;213124;1292;140750;-91
2024/02/23 04:51:28;;;;;;;4.30;1.80;;;;;;;10.27;100.00;98151.48;214058;1286;139186;-91
2024/02/23 04:56:28;;;;;;;6.00;2.00;;;;;;;10.29;100.00;98149.23;213653;1285;141253;-90
2024/02/23 05:01:29;;;;;;;4.70;1.70;;;;;;;10.30;100.00;98150.30;214139;1285;139129;-88
2024/02/23 05:06:30;;;;;;;4.00;1.70;;;;;;;10.32;100.00;98159.61;213648;1285;140167;-90
2024/02/23 05:11:30;;;;;;;5.60;2.30;;;;;;;10.31;100.00;98171.64;214168;1289;139040;-88
2024/02/23 05:16:31;;;;;;;4.50;2.10;;;;;;;10.31;100.00;98185.09;213625;1288;140543;-89
2024/02/23 05:21:31;;;;;;;5.30;2.30;;;;;;;10.30;100.00;98204.41;214083;1289;139169;-89
2024/02/23 05:26:32;;;;;;;7.50;2.20;;;;;;;10.29;100.00;98218.81;213614;1291;140497;-89
2024/02/23 05:31:47;;;;;;;5.20;2.40;;;;;;;10.27;100.00;98227.88;214283;1286;139564;-90
2024/02/23 05:36:47;;;;;;;5.30;2.00;;;;;;;10.27;100.00;98238.50;214414;1288;141001;-90
2024/02/23 05:41:48;;;;;;;5.10;2.10;;;;;;;10.26;100.00;98255.00;214053;1288;138836;-89
2024/02/23 05:46:49;;;;;;;3.10;1.70;;;;;;;10.27;100.00;98271.09;213458;1288;140038;-89
2024/02/23 05:51:49;;;;;;;4.20;2.00;;;;;;;10.27;100.00;98278.23;213776;1291;139014;-89
2024/02/23 05:56:50;;;;;;;4.50;1.80;;;;;;;10.28;100.00;98291.66;213354;1287;140287;-89
2024/02/23 06:01:52;;;;;;;4.50;2.00;;;;;;;10.28;100.00;98296.42;213997;1286;138882;-88
2024/02/23 06:06:53;;;;;;;6.30;1.80;;;;;;;10.31;100.00;98306.20;213495;1288;140878;-88
2024/02/23 06:11:53;;;;;;;9.40;3.80;;;;;;;10.32;100.00;98317.79;214233;1285;138794;-88
2024/02/23 06:16:53;;;;;;;3.70;2.00;;;;;;;10.32;100.00;98329.33;213530;1285;140270;-88
2024/02/23 06:21:54;;;;;;;4.90;2.10;;;;;;;10.33;100.00;98334.34;214019;1289;139051;-88
2024/02/23 06:26:54;;;;;;;6.00;2.20;;;;;;;10.35;100.00;98340.66;213544;1288;140200;-89
2024/02/23 06:31:55;;;;;;;4.40;1.50;;;;;;;10.34;100.00;98349.24;214119;1286;140693;-88
2024/02/23 06:36:56;;;;;;;4.60;1.60;;;;;;;10.33;100.00;98356.48;215178;1288;140843;-88
2024/02/23 06:41:57;;;;;;;2.20;1.20;;;;;;;10.35;100.00;98373.20;214123;1287;138670;-89
2024/02/23 06:46:58;;;;;;;4.50;1.20;;;;;;;10.34;100.00;98387.42;213446;1286;141323;-88
2024/02/23 06:52:01;;;;;;;2.60;1.20;;;;;;;10.33;100.00;98402.83;213830;1286;139063;-88
2024/02/23 06:57:01;;;;;;;2.90;1.20;;;;;;;10.31;100.00;98412.22;213245;1287;140373;-89
2024/02/23 07:02:02;;;;;;;2.20;1.00;;;;;;;10.32;100.00;98429.73;213764;1286;138870;-89
2024/02/23 07:07:07;;;;;;;3.70;1.50;;;;;;;10.31;100.00;98438.30;213325;1285;141432;-90
2024/02/23 07:12:07;;;;;;;3.40;1.00;;;;;;;10.30;100.00;98450.11;214003;1285;112496;-89
2024/02/23 07:17:08;;;;;;;2.80;1.30;;;;;;;10.30;100.00;98457.95;213455;1289;140792;-89
2024/02/23 07:22:08;;;;;;;3.30;0.90;;;;;;;10.29;100.00;98466.84;213793;1287;138852;-88
2024/02/23 07:27:09;;;;;;;2.50;1.10;;;;;;;10.28;100.00;98477.70;213201;1290;140553;-88
2024/02/23 07:32:10;;;;;;;6.10;1.00;;;;;;;10.27;100.00;98486.54;213771;1285;139095;-87
2024/02/23 07:37:10;;;;;;;4.00;1.50;;;;;;;10.25;99.99;98496.55;215464;1287;140695;-87
2024/02/23 07:42:10;;;;;;;2.60;0.90;;;;;;;10.24;100.00;98511.41;214053;1288;105957;-87
2024/02/23 07:47:11;;;;;;;1.00;0.60;;;;;;;10.22;100.00;98524.48;213558;1285;140603;-87
2024/02/23 07:52:12;;;;;;;4.20;1.00;;;;;;;10.20;100.00;98532.98;214001;1285;139720;-86
2024/02/23 07:57:13;;;;;;;2.70;0.90;;;;;;;10.19;99.79;98546.21;213415;1285;140590;-86
2024/02/23 08:02:14;;;;;;;2.50;0.80;;;;;;;10.18;99.45;98567.52;213944;1288;138924;-85
2024/02/23 08:07:15;;;;;;;3.30;0.80;;;;;;;10.15;98.22;98570.54;213407;1291;139888;-86
2024/02/23 08:12:15;;;;;;;3.30;0.70;;;;;;;10.13;96.91;98578.27;214128;1289;98894;-84
2024/02/23 08:17:16;;;;;;;2.30;0.80;;;;;;;10.11;94.93;98591.82;213400;1286;140012;-87
2024/02/23 08:22:16;;;;;;;5.90;0.80;;;;;;;10.08;93.84;98599.33;213723;1291;139440;-85
2024/02/23 08:27:16;;;;;;;3.10;0.90;;;;;;;10.08;93.24;98609.70;213343;1288;167767;-85
2024/02/23 08:32:18;;;;;;;4.90;1.00;;;;;;;10.05;93.97;98610.05;214010;1286;140068;-84
2024/02/23 08:37:19;;;;;;;1.60;0.80;;;;;;;10.04;94.26;98607.15;215155;1286;140460;-85
2024/02/23 08:42:20;;;;;;;4.20;0.90;;;;;;;10.04;93.25;98610.77;214064;1286;106097;-87
2024/02/23 08:47:20;;;;;;;5.60;1.10;;;;;;;10.05;94.04;98622.07;213475;1288;139655;-85
2024/02/23 08:52:20;;;;;;;3.70;1.00;;;;;;;10.06;94.13;98627.48;213480;1287;138682;-86
2024/02/23 08:57:22;;;;;;;3.70;1.20;;;;;;;10.08;95.10;98639.52;213100;1285;139556;-85
2024/02/23 09:02:26;;;;;;;3.70;1.50;;;;;;;10.12;95.29;98662.94;213899;1285;138715;-86
2024/02/23 09:07:26;;;;;;;4.80;1.20;;;;;;;10.15;94.01;98679.23;213367;1285;140677;-86
2024/02/23 09:12:27;;;;;;;7.00;1.40;;;;;;;10.17;94.94;98701.27;214066;1288;106121;-86
2024/02/23 09:17:27;;;;;;;3.20;1.00;;;;;;;10.19;94.30;98716.72;213400;1286;140452;-86
2024/02/23 09:22:27;;;;;;;3.30;1.10;;;;;;;10.18;92.54;98729.05;213878;1286;138765;-86
2024/02/23 09:27:28;;;;;;;3.40;1.20;;;;;;;10.19;92.74;98729.28;213141;1286;140051;-87
2024/02/23 09:32:28;;;;;;;3.40;1.10;;;;;;;10.21;93.15;98730.05;213752;1287;138712;-88
2024/02/23 09:37:29;;;;;;;9.20;0.80;;;;;;;10.25;93.43;98744.82;213464;1292;139615;-88
2024/02/23 09:42:32;;;;;;;2.00;0.60;;;;;;;10.29;93.32;98751.68;214019;1287;98695;-89
2024/02/23 09:47:32;;;;;;;7.50;0.90;;;;;;;10.33;93.19;98763.48;213311;1293;139758;-90
2024/02/23 09:52:33;;;;;;;2.00;0.70;;;;;;;10.37;92.70;98764.66;214133;1285;138497;-89
2024/02/23 09:57:35;;;;;;;4.30;0.80;;;;;;;10.47;94.47;98772.93;213617;1288;140752;-90
2024/02/23 10:02:36;;;;;;;1.90;0.60;;;;;;;10.58;93.53;98784.23;214085;1285;138857;-89
2024/02/23 10:07:36;;;;;;;2.50;0.90;;;;;;;10.66;92.00;98789.63;213482;1285;140363;-90
2024/02/23 10:12:37;;;;;;;5.30;0.90;;;;;;;10.73;90.36;98793.11;214049;1291;97947;-90
2024/02/23 10:17:38;;;;;;;5.30;0.80;;;;;;;10.83;90.99;98787.15;213641;1285;139992;-90
2024/02/23 10:22:38;;;;;;;3.20;1.30;;;;;;;10.91;90.20;98801.94;214032;1285;138585;-89
2024/02/23 10:27:41;;;;;;;3.30;1.10;;;;;;;11.09;92.54;98814.38;213767;1288;140464;-89
2024/02/23 10:32:42;;;;;;;5.00;1.40;;;;;;;11.21;90.64;98820.09;214166;1285;138703;-89
2024/02/23 10:37:47;;;;;;;4.50;1.20;;;;;;;11.27;90.89;98822.19;213577;1285;140119;-89
2024/02/23 10:42:50;;;;;;;5.60;1.20;;;;;;;11.35;90.72;98828.80;215976;1288;98401;-89
2024/02/23 10:47:51;;;;;;;3.10;0.90;;;;;;;11.34;91.04;98822.85;213463;1291;139799;-89
2024/02/23 10:52:52;;;;;;;2.40;0.70;;;;;;;11.36;92.29;98826.82;213969;1288;138516;-89
2024/02/23 10:57:54;;;;;;;2.50;0.90;;;;;;;11.40;89.84;98835.48;213602;1285;140985;-88
2024/02/23 11:02:55;;;;;;;4.00;0.90;;;;;;;11.38;88.99;98845.98;214224;1288;138737;-88
2024/02/23 11:07:56;;;;;;;5.60;1.00;;;;;;;11.40;89.45;98845.40;213954;1285;140205;-88
2024/02/23 11:12:59;;;;;;;3.20;0.70;;;;;;;11.41;87.82;98849.95;214137;1290;97993;-89
2024/02/23 11:18:00;;;;;;;1.90;0.90;;;;;;;11.35;86.15;98855.16;213639;1286;139953;-88
2024/02/23 11:23:00;;;;;;;6.50;1.10;;;;;;;11.34;87.16;98851.89;214306;1290;138814;-89
2024/02/23 11:28:01;;;;;;;4.50;1.40;;;;;;;11.42;86.83;98851.36;213894;1286;139746;-87
2024/02/23 11:33:01;;;;;;;2.70;0.90;;;;;;;11.43;85.65;98848.41;213904;1286;139237;-89
2024/02/23 11:38:05;;;;;;;3.80;1.10;;;;;;;11.38;84.40;98848.75;213945;1291;139313;-92
2024/02/23 11:43:06;;;;;;;3.00;0.90;;;;;;;11.36;83.37;98850.20;214623;1289;138402;-89
2024/02/23 11:48:07;;;;;;;4.00;0.90;;;;;;;11.30;83.69;98854.95;214093;1290;139505;-90
2024/02/23 11:53:08;;;;;;;1.50;1.00;;;;;;;11.26;83.71;98855.55;214638;1285;137948;-90
2024/02/23 11:58:09;;;;;;;1.40;0.80;;;;;;;11.20;84.68;98858.80;214276;1287;139757;-89
2024/02/23 12:03:10;;;;;;;3.90;1.40;;;;;;;11.21;85.55;98860.13;214551;1289;138138;-88
2024/02/23 12:08:10;;;;;;;4.50;1.20;;;;;;;11.14;84.79;98864.02;214097;1289;139614;-89
2024/02/23 12:13:11;;;;;;;6.80;1.10;;;;;;;11.04;83.34;98871.25;214307;1291;138469;-88
2024/02/23 12:18:12;;;;;;;6.20;1.60;;;;;;;10.91;84.21;98887.73;213910;1287;139567;-89
2024/02/23 12:23:12;;;;;;;5.20;1.60;;;;;;;10.88;85.94;98899.27;214571;1285;137863;-90
2024/02/23 12:28:18;;;;;;;6.80;2.60;;;;;;;10.79;82.55;98920.69;213655;1286;139754;-91
2024/02/23 12:33:20;;;;;;;7.30;1.80;;;;;;;10.60;82.33;98923.96;214701;1287;137985;-90
2024/02/23 12:38:20;;;;;;;3.40;1.00;;;;;;;10.54;83.86;98945.86;216015;1287;139903;-90
2024/02/23 12:43:23;;;;;;;3.90;0.90;;;;;;;10.52;82.97;98954.55;217099;1285;138144;-90
2024/02/23 12:48:24;;;;;;;4.80;1.30;;;;;;;10.50;83.98;98960.54;214215;1285;139468;-89
2024/02/23 12:53:35;;;;;;;6.40;1.50;;;;;;;10.56;85.01;98965.81;214112;1290;137835;-90
2024/02/23 12:58:40;;;;;;;6.80;1.80;;;;;;;10.64;84.89;98947.33;213497;1289;140353;-89
2024/02/23 13:03:43;;;;;;;2.70;1.10;;;;;;;10.71;83.02;98959.80;213895;1285;138186;-88
2024/02/23 13:08:44;;;;;;;4.90;1.30;;;;;;;10.74;83.52;98961.33;213736;1285;139676;-89
2024/02/23 13:13:44;;;;;;;4.70;1.90;;;;;;;10.78;83.19;98966.86;213933;1288;138436;-90
2024/02/23 13:18:46;;;;;;;5.30;1.20;;;;;;;10.77;82.51;98957.99;213751;1289;139743;-90
2024/02/23 13:23:46;;;;;;;6.40;1.80;;;;;;;10.78;83.20;98956.17;213993;1288;137838;-89
2024/02/23 13:28:47;;;;;;;6.60;1.60;;;;;;;10.81;82.64;98952.44;213323;1288;139626;-89
2024/02/23 13:33:47;;;;;;;7.90;2.20;;;;;;;10.86;83.62;98952.36;213690;1293;138666;-89
2024/02/23 13:38:48;;;;;;;2.70;1.30;;;;;;;10.88;81.10;98944.48;213048;1287;139011;-89
2024/02/23 13:43:48;;;;;;;10.80;2.20;;;;;;;10.87;81.91;98940.09;214715;1287;139560;-90
2024/02/23 13:49:06;;;;;;;7.20;2.70;;;;;;;10.88;81.56;98926.86;214211;1292;139258;-88
2024/02/23 13:54:06;;;;;;;7.20;2.40;;;;;;;10.87;81.65;98921.62;213733;1290;98907;-88
2024/02/23 13:59:07;;;;;;;5.90;1.70;;;;;;;10.87;81.68;98934.36;213148;1290;139632;-89
2024/02/23 14:04:10;;;;;;;3.00;1.50;;;;;;;10.86;81.45;98941.77;213808;1292;138167;-89
2024/02/23 14:09:10;;;;;;;5.30;1.50;;;;;;;10.81;81.64;98949.38;213336;1289;139610;-88
2024/02/23 14:14:11;;;;;;;6.20;2.20;;;;;;;10.76;82.23;98957.30;214121;1291;139388;-89
2024/02/23 14:19:12;;;;;;;10.20;2.20;;;;;;;10.71;82.17;98973.56;213596;1285;139773;-89
2024/02/23 14:24:12;;;;;;;9.90;3.00;;;;;;;10.64;82.63;98982.45;214124;1289;97983;-88
2024/02/23 14:29:13;;;;;;;10.30;2.40;;;;;;;10.59;82.58;98993.52;213563;1287;138555;-90
2024/02/23 14:34:13;;;;;;;7.10;2.20;;;;;;;10.52;82.70;99000.68;213648;1292;138179;-88
2024/02/23 14:39:13;;;;;;;7.90;2.30;;;;;;;10.46;83.52;99000.83;213346;1292;140343;-89
2024/02/23 14:44:14;;;;;;;7.90;2.60;;;;;;;10.42;83.66;99003.15;214000;1287;137038;-89
2024/02/23 14:49:14;;;;;;;7.60;2.30;;;;;;;10.36;83.84;99014.14;214835;1288;139971;-88
2024/02/23 14:54:15;;;;;;;9.20;2.50;;;;;;;10.32;84.78;99012.45;213845;1287;99181;-89
2024/02/23 14:59:15;;;;;;;10.80;3.00;;;;;;;10.28;85.07;99014.30;213659;1285;142361;-88
2024/02/23 15:04:15;;;;;;;10.60;2.70;;;;;;;10.26;84.75;99014.33;214201;1285;138881;-88
2024/02/23 15:09:16;;;;;;;10.00;3.60;;;;;;;10.21;85.46;99016.10;213869;1291;139821;-89
2024/02/23 15:14:16;;;;;;;16.40;6.60;;;;;;;10.20;86.73;99012.98;214124;1291;138863;-89
2024/02/23 15:19:17;;;;;;;20.20;5.20;;;;;;;10.16;86.91;99009.23;213623;1285;140768;-89
2024/02/23 15:24:18;;;;;;;15.60;4.40;;;;;;;10.11;87.42;99009.52;214212;1285;97970;-88
2024/02/23 15:29:18;;;;;;;11.10;4.20;;;;;;;10.03;87.56;99016.88;213771;1285;140173;-90
2024/02/23 15:34:19;;;;;;;10.70;4.10;;;;;;;9.96;86.93;99022.52;214279;1288;139692;-90
2024/02/23 15:39:19;;;;;;;13.00;4.60;;;;;;;9.89;87.57;99028.06;213845;1290;140269;-88
2024/02/23 15:44:19;;;;;;;10.50;4.40;;;;;;;9.84;87.73;99028.98;214203;1285;138682;-88
2024/02/23 15:49:24;;;;;;;13.50;4.20;;;;;;;9.79;87.72;99032.48;215746;1290;139233;-88
2024/02/23 15:54:27;;;;;;;13.10;4.70;;;;;;;9.76;88.37;99035.41;214297;1285;98472;-88
2024/02/23 15:59:29;;;;;;;10.80;5.00;;;;;;;9.74;88.38;99035.58;213721;1285;139962;-88
2024/02/23 16:04:30;;;;;;;15.60;6.40;;;;;;;9.72;88.94;99051.44;214118;1289;138733;-88
2024/02/23 16:09:30;;;;;;;16.10;5.30;;;;;;;9.70;89.84;99056.72;213542;1290;140090;-88
2024/02/23 16:14:30;;;;;;;15.20;4.70;;;;;;;9.69;90.25;99056.10;214158;1285;138696;-88
2024/02/23 16:19:31;;;;;;;11.90;3.70;;;;;;;9.62;90.68;99059.61;213629;1287;140262;-88
2024/02/23 16:24:31;;;;;;;12.20;3.70;;;;;;;9.54;90.73;99060.05;214186;1287;98054;-88
2024/02/23 16:29:31;;;;;;;13.70;4.10;;;;;;;9.47;91.01;99056.41;213716;1291;139749;-88
2024/02/23 16:34:33;;;;;;;85.30;24.20;;;;;;;9.36;91.71;99055.16;214181;1286;138365;-88
2024/02/23 16:39:35;;;;;;;27.40;8.30;;;;;;;9.27;92.16;99064.06;213501;1286;141393;-89
2024/02/23 16:44:36;;;;;;;20.70;7.00;;;;;;;9.21;92.36;99068.88;214764;1290;138772;-89
2024/02/23 16:49:36;;;;;;;25.20;8.10;;;;;;;9.10;92.88;99071.45;215651;1290;139972;-89
2024/02/23 16:54:37;;;;;;;36.20;11.70;;;;;;;8.93;93.31;99069.95;214424;1286;98081;-91
2024/02/23 16:59:37;;;;;;;68.50;20.10;;;;;;;8.80;94.87;99072.05;213706;1291;139098;-90
2024/02/23 17:04:37;;;;;;;139.50;39.40;;;;;;;8.66;96.04;99079.92;214104;1285;138537;-90
2024/02/23 17:09:38;;;;;;;109.30;33.70;;;;;;;8.52;97.08;99073.70;213716;1285;141482;-90
2024/02/23 17:14:39;;;;;;;111.10;34.90;;;;;;;8.40;98.30;99071.00;214034;1288;138892;-90
2024/02/23 17:19:40;;;;;;;97.00;29.60;;;;;;;8.32;99.65;99077.74;213717;1288;140486;-90
2024/02/23 17:24:41;;;;;;;140.40;42.60;;;;;;;8.24;99.95;99073.21;214319;1287;97953;-90
2024/02/23 17:29:41;;;;;;;102.60;33.10;;;;;;;8.13;100.00;99078.52;213575;1286;140137;-90
2024/02/23 17:34:42;;;;;;;106.60;34.40;;;;;;;8.03;100.00;99102.02;214070;1291;139272;-90
2024/02/23 17:39:42;;;;;;;67.20;21.60;;;;;;;7.92;100.00;99115.63;213649;1285;140604;-90
2024/02/23 17:44:42;;;;;;;43.20;16.10;;;;;;;7.82;100.00;99127.75;214076;1286;141347;-90
2024/02/23 17:49:43;;;;;;;49.90;20.00;;;;;;;7.72;100.00;99134.93;215363;1290;139511;-91
2024/02/23 17:54:43;;;;;;;42.00;14.10;;;;;;;7.66;100.00;99144.93;214174;1286;98057;-90
2024/02/23 17:59:44;;;;;;;59.80;21.90;;;;;;;7.57;100.00;99149.84;213156;1287;141316;-90
2024/02/23 18:04:46;;;;;;;74.40;26.80;;;;;;;7.52;100.00;99140.75;213548;1292;138941;-89
2024/02/23 18:09:47;;;;;;;124.40;42.00;;;;;;;7.47;100.00;99137.53;213488;1301;140179;-90
2024/02/23 18:14:48;;;;;;;192.10;60.30;;;;;;;7.43;100.00;99124.86;213863;1286;140100;-90
2024/02/23 18:19:49;;;;;;;112.30;38.20;;;;;;;7.40;100.00;99128.05;213270;1292;140323;-90
2024/02/23 18:24:49;;;;;;;90.60;30.70;;;;;;;7.36;100.00;99125.46;214157;1291;99515;-90
2024/02/23 18:29:50;;;;;;;47.80;19.50;;;;;;;7.33;100.00;99116.54;213378;1292;140448;-90
2024/02/23 18:34:51;;;;;;;36.10;16.30;;;;;;;7.28;100.00;99113.25;213953;1293;139161;-90
2024/02/23 18:39:53;;;;;;;75.20;28.50;;;;;;;7.29;100.00;99112.86;213313;1291;140846;-90
2024/02/23 18:44:56;;;;;;;43.70;18.10;;;;;;;7.31;100.00;99123.64;213550;1293;139426;-90
2024/02/23 18:49:57;;;;;;;27.00;12.60;;;;;;;7.29;100.00;99126.54;214887;1291;139857;-90
2024/02/23 18:54:57;;;;;;;35.30;12.80;;;;;;;7.24;100.00;99125.89;214094;1300;98467;-89
2024/02/23 18:59:58;;;;;;;29.60;10.90;;;;;;;7.21;100.00;99121.19;213796;1288;140023;-89
2024/02/23 19:05:02;;;;;;;19.30;9.30;;;;;;;7.19;100.00;99110.71;214294;1292;139135;-89
2024/02/23 19:10:03;;;;;;;24.70;9.20;;;;;;;7.20;100.00;99098.05;214075;1293;139166;-89
2024/02/23 19:15:05;;;;;;;18.30;8.20;;;;;;;7.20;100.00;99096.17;213942;1286;139110;-89
2024/02/23 19:20:08;;;;;;;25.60;8.30;;;;;;;7.20;100.00;99097.80;213599;1289;140701;-89
2024/02/23 19:25:09;;;;;;;21.30;8.80;;;;;;;7.21;100.00;99101.18;213960;1290;139208;-89
2024/02/23 19:30:14;;;;;;;22.30;9.40;;;;;;;7.24;100.00;99103.77;213294;1291;140211;-89
2024/02/23 19:35:15;;;;;;;19.40;10.50;;;;;;;7.25;100.00;99104.40;213491;1290;138819;-90
2024/02/23 19:40:20;;;;;;;20.30;9.50;;;;;;;7.28;100.00;99103.24;213358;1293;141145;-88
2024/02/23 19:45:25;;;;;;;22.90;8.90;;;;;;;7.29;100.00;99109.48;214418;1290;139089;-89
2024/02/23 19:50:25;;;;;;;20.40;8.30;;;;;;;7.33;100.00;99117.47;213750;1289;140234;-89
2024/02/23 19:55:26;;;;;;;25.70;8.60;;;;;;;7.34;100.00;99126.31;214272;1289;139374;-89
2024/02/23 20:00:27;;;;;;;17.10;7.30;;;;;;;7.37;100.00;99128.35;213704;1286;141293;-89
2024/02/23 20:05:28;;;;;;;17.80;7.80;;;;;;;7.40;100.00;99122.81;213887;1292;139211;-90
2024/02/23 20:10:28;;;;;;;19.70;7.00;;;;;;;7.44;100.00;99113.91;213799;1289;140823;-88
2024/02/23 20:15:29;;;;;;;14.30;6.30;;;;;;;7.48;100.00;99107.20;213944;1289;138735;-88
2024/02/23 20:20:30;;;;;;;14.10;6.10;;;;;;;7.50;100.00;99104.85;213548;1291;139724;-88
2024/02/23 20:25:30;;;;;;;16.40;6.40;;;;;;;7.52;100.00;99090.86;214014;1289;138783;-89
2024/02/23 20:30:30;;;;;;;13.50;6.00;;;;;;;7.53;100.00;99093.13;213747;1286;140287;-89
2024/02/23 20:35:31;;;;;;;15.00;6.30;;;;;;;7.54;100.00;99094.77;214214;1285;138544;-90
2024/02/23 20:40:31;;;;;;;16.70;7.50;;;;;;;7.56;100.00;99104.39;213430;1292;139785;-88
2024/02/23 20:45:31;;;;;;;15.80;7.00;;;;;;;7.57;100.00;99115.65;213928;1287;138809;-89
2024/02/23 20:50:32;;;;;;;19.10;7.80;;;;;;;7.58;100.00;99125.27;213453;1286;141319;-89
2024/02/23 20:55:33;;;;;;;18.20;7.40;;;;;;;7.59;100.00;99128.56;214057;1284;139259;-89
2024/02/23 21:00:33;;;;;;;18.30;7.40;;;;;;;7.59;100.00;99136.39;213789;1288;140109;-89
2024/02/23 21:05:35;;;;;;;17.60;7.60;;;;;;;7.60;100.00;99140.23;214140;1288;138539;-89
2024/02/23 21:10:36;;;;;;;16.20;7.40;;;;;;;7.62;100.00;99142.42;213741;1287;140059;-88
2024/02/23 21:15:38;;;;;;;17.80;7.40;;;;;;;7.63;100.00;99140.62;214240;1285;138728;-90
2024/02/23 21:20:38;;;;;;;12.70;6.60;;;;;;;7.64;100.00;99145.02;213915;1286;140937;-88
2024/02/23 21:25:39;;;;;;;13.80;6.50;;;;;;;7.62;100.00;99146.96;214211;1288;138707;-89
2024/02/23 21:30:43;;;;;;;14.70;6.40;;;;;;;7.61;100.00;99144.15;213738;1289;139900;-88
2024/02/23 21:35:44;;;;;;;12.10;5.50;;;;;;;7.60;100.00;99134.43;214451;1288;138851;-89
2024/02/23 21:40:44;;;;;;;11.40;5.00;;;;;;;7.58;100.00;99132.87;213683;1287;140207;-90
2024/02/23 21:45:45;;;;;;;8.30;3.60;;;;;;;7.55;100.00;99142.09;214407;1285;140437;-88
2024/02/23 21:50:45;;;;;;;8.80;3.70;;;;;;;7.50;100.00;99139.72;213676;1288;140318;-90
2024/02/23 21:55:45;;;;;;;8.10;4.00;;;;;;;7.45;100.00;99138.63;214420;1290;138498;-89
2024/02/23 22:00:46;;;;;;;11.70;6.40;;;;;;;7.41;100.00;99138.69;213726;1289;139891;-89
2024/02/23 22:05:47;;;;;;;12.00;5.30;;;;;;;7.36;100.00;99142.04;214159;1287;139056;-90
2024/02/23 22:10:47;;;;;;;10.90;4.60;;;;;;;7.28;100.00;99155.77;213695;1284;140108;-90
2024/02/23 22:15:47;;;;;;;11.80;5.30;;;;;;;7.21;100.00;99152.48;214090;1290;140722;-91
2024/02/23 22:20:48;;;;;;;10.30;4.30;;;;;;;7.11;100.00;99141.24;213781;1286;139956;-92
2024/02/23 22:25:48;;;;;;;20.90;6.90;;;;;;;7.00;100.00;99138.92;214000;1287;138675;-92
2024/02/23 22:30:49;;;;;;;20.50;7.30;;;;;;;6.91;100.00;99140.69;213853;1286;139812;-87
2024/02/23 22:35:49;;;;;;;28.50;9.10;;;;;;;6.83;100.00;99134.30;214271;1286;139137;-87
2024/02/23 22:40:49;;;;;;;33.70;10.20;;;;;;;6.78;100.00;99122.88;213998;1285;140113;-86
2024/02/23 22:45:53;;;;;;;43.70;12.50;;;;;;;6.74;100.00;99114.81;214386;1285;138915;-87
2024/02/23 22:50:53;;;;;;;49.40;12.00;;;;;;;6.67;100.00;99112.83;213597;1289;141870;-87